createdAt,value
2023-01-20T00:00:33.869Z,97.33
2023-01-20T00:03:01.447Z,97.52
2023-01-20T00:05:29.008Z,96.46
2023-01-20T00:07:56.560Z,97.28
2023-01-20T00:10:24.084Z,97.41
2023-01-20T00:12:51.562Z,96.85
2023-01-20T00:15:19.084Z,97.71
2023-01-20T00:17:47.970Z,97.52
2023-01-20T00:20:15.738Z,97.58
2023-01-20T00:22:43.258Z,96.90
2023-01-20T00:25:11.292Z,97.38
2023-01-20T00:27:38.868Z,98.19
2023-01-20T00:30:07.750Z,99.02
2023-01-20T00:32:39.064Z,99.08
2023-01-20T00:35:10.509Z,99.32
2023-01-20T00:37:38.157Z,97.88
2023-01-20T00:40:07.193Z,98.37
2023-01-20T00:42:34.779Z,97.45
2023-01-20T00:45:02.503Z,97.40
2023-01-20T00:47:30.054Z,98.31
2023-01-20T00:49:57.576Z,97.50
2023-01-20T00:52:26.480Z,98.00
2023-01-20T00:54:54.074Z,97.83
2023-01-20T00:57:21.629Z,97.78
2023-01-20T00:59:49.236Z,98.10
2023-01-20T01:02:16.782Z,97.13
2023-01-20T01:04:44.501Z,98.25
2023-01-20T01:07:12.101Z,98.63
2023-01-20T01:09:41.030Z,97.53
2023-01-20T01:12:08.743Z,97.41
2023-01-20T01:14:36.309Z,97.42
2023-01-20T01:17:03.817Z,97.32
2023-01-20T01:19:31.352Z,98.39
2023-01-20T01:21:58.894Z,97.72
2023-01-20T01:24:26.428Z,97.89
2023-01-20T01:26:55.535Z,97.91
2023-01-20T01:29:23.210Z,98.47
2023-01-20T01:31:50.818Z,98.30
2023-01-20T01:34:18.380Z,99.49
2023-01-20T01:36:45.872Z,99.44
2023-01-20T01:39:13.374Z,99.11
2023-01-20T01:41:40.962Z,99.13
2023-01-20T01:44:11.828Z,98.28
2023-01-20T01:46:40.761Z,98.23
2023-01-20T01:49:12.711Z,99.15
2023-01-20T01:51:43.759Z,99.33
2023-01-20T01:54:14.244Z,98.59
2023-01-20T01:56:44.201Z,99.60
2023-01-20T01:59:15.102Z,98.92
2023-01-20T02:01:48.327Z,98.58
2023-01-20T02:04:17.990Z,99.76
2023-01-20T02:06:47.569Z,99.19
2023-01-20T02:09:15.404Z,99.89
2023-01-20T02:11:48.411Z,99.48
2023-01-20T02:14:18.891Z,99.36
2023-01-20T02:16:59.007Z,98.69
2023-01-20T02:20:05.859Z,98.39
2023-01-20T02:22:48.310Z,99.07
2023-01-20T02:25:47.597Z,98.54
2023-01-20T02:28:46.237Z,98.18
2023-01-20T02:31:56.791Z,98.30
2023-01-20T02:34:29.116Z,97.89
2023-01-20T02:37:00.154Z,99.21
2023-01-20T02:39:31.996Z,99.14
2023-01-20T02:42:05.145Z,98.64
2023-01-20T02:44:36.739Z,98.35
2023-01-20T02:47:12.989Z,98.51
2023-01-20T02:49:45.297Z,99.59
2023-01-20T02:52:16.253Z,99.46
2023-01-20T02:54:49.868Z,99.30
2023-01-20T02:57:22.485Z,99.83
2023-01-20T02:59:54.295Z,98.98
2023-01-20T03:02:26.640Z,99.18
2023-01-20T03:05:00.196Z,99.64
2023-01-20T03:07:30.391Z,99.24
2023-01-20T03:10:02.016Z,99.15
2023-01-20T03:12:34.496Z,99.19
2023-01-20T03:15:02.109Z,99.39
2023-01-20T03:17:31.231Z,98.69
2023-01-20T03:19:58.888Z,99.23
2023-01-20T03:22:26.536Z,98.33
2023-01-20T03:24:55.806Z,98.68
2023-01-20T03:27:23.416Z,99.04
2023-01-20T03:29:51.071Z,98.66
2023-01-20T03:32:22.670Z,98.61
2023-01-20T03:34:51.671Z,97.71
2023-01-20T03:37:19.236Z,98.58
2023-01-20T03:39:47.087Z,98.25
2023-01-20T03:42:19.611Z,98.41
2023-01-20T03:45:01.342Z,98.25
2023-01-20T03:47:42.364Z,98.41
2023-01-20T03:50:23.766Z,96.85
2023-01-20T03:52:56.567Z,97.58
2023-01-20T03:55:27.582Z,97.43
2023-01-20T03:58:03.335Z,97.61
2023-01-20T04:00:33.534Z,97.57
2023-01-20T04:03:06.825Z,98.24
2023-01-20T04:05:35.955Z,98.03
2023-01-20T04:08:08.022Z,97.64
2023-01-20T04:10:37.881Z,96.95
2023-01-20T04:13:05.753Z,97.27
2023-01-20T04:15:35.837Z,97.82
2023-01-20T04:18:15.852Z,97.79
2023-01-20T04:20:47.169Z,97.21
2023-01-20T04:23:21.753Z,97.73
2023-01-20T04:25:49.408Z,97.02
2023-01-20T04:28:17.016Z,97.71
2023-01-20T04:30:44.649Z,98.41
2023-01-20T04:33:12.278Z,97.12
2023-01-20T04:35:39.913Z,98.02
2023-01-20T04:38:08.875Z,97.70
2023-01-20T04:40:36.535Z,97.45
2023-01-20T04:43:04.395Z,97.63
2023-01-20T04:45:32.019Z,97.35
2023-01-20T04:47:59.600Z,97.22
2023-01-20T04:50:27.243Z,97.34
2023-01-20T04:52:56.177Z,98.29
2023-01-20T04:55:26.672Z,97.78
2023-01-20T04:57:54.219Z,98.47
2023-01-20T05:00:22.257Z,98.52
2023-01-20T05:02:49.893Z,97.95
2023-01-20T05:05:17.944Z,97.90
2023-01-20T05:07:45.617Z,99.62
2023-01-20T05:10:13.427Z,98.30
2023-01-20T05:12:42.611Z,97.93
2023-01-20T05:15:10.944Z,99.04
2023-01-20T05:17:38.563Z,98.19
2023-01-20T05:20:06.749Z,98.30
2023-01-20T05:22:34.565Z,98.44
2023-01-20T05:25:02.096Z,99.29
2023-01-20T05:27:29.699Z,99.02
2023-01-20T05:29:58.641Z,98.70
2023-01-20T05:32:26.215Z,99.25
2023-01-20T05:34:53.848Z,99.45
2023-01-20T05:37:21.420Z,98.95
2023-01-20T05:39:49.030Z,98.81
2023-01-20T05:42:16.698Z,99.25
2023-01-20T05:44:44.342Z,99.25
2023-01-20T05:47:13.417Z,98.53
2023-01-20T05:49:41.615Z,99.32
2023-01-20T05:52:09.138Z,99.36
2023-01-20T05:54:36.726Z,99.45
2023-01-20T05:57:05.567Z,99.45
2023-01-20T05:59:33.229Z,98.55
2023-01-20T06:02:00.815Z,98.64
2023-01-20T06:04:29.688Z,98.63
2023-01-20T06:06:57.238Z,100.00
2023-01-20T06:09:25.070Z,100.00
2023-01-20T06:11:52.772Z,100.00
2023-01-20T06:14:20.513Z,100.00
2023-01-20T06:16:48.092Z,99.87
2023-01-20T06:19:15.877Z,98.74
2023-01-20T06:21:46.847Z,98.81
2023-01-20T06:24:14.760Z,98.33
2023-01-20T06:26:42.366Z,98.16
2023-01-20T06:29:09.874Z,98.21
2023-01-20T06:31:37.535Z,98.66
2023-01-20T06:34:05.079Z,97.27
2023-01-20T06:36:32.612Z,96.94
2023-01-20T06:39:01.475Z,97.99
2023-01-20T06:41:29.049Z,97.79
2023-01-20T06:43:56.641Z,97.91
2023-01-20T06:46:24.244Z,98.10
2023-01-20T06:48:51.812Z,98.25
2023-01-20T06:51:21.296Z,97.68
2023-01-20T06:53:49.085Z,98.08
2023-01-20T06:56:18.310Z,98.36
2023-01-20T06:58:46.154Z,99.12
2023-01-20T07:01:15.893Z,98.97
2023-01-20T07:03:44.245Z,100.00
2023-01-20T07:06:17.276Z,100.00
2023-01-20T07:08:45.994Z,100.00
2023-01-20T07:11:13.920Z,100.00
2023-01-20T07:13:43.305Z,100.00
2023-01-20T07:16:15.188Z,100.00
2023-01-20T07:18:43.722Z,100.00
2023-01-20T07:21:12.662Z,100.00
2023-01-20T07:23:40.245Z,100.00
2023-01-20T07:26:09.395Z,100.00
2023-01-20T07:28:56.141Z,100.00
2023-01-20T07:31:25.546Z,100.00
2023-01-20T07:33:55.228Z,99.76
2023-01-20T07:36:23.111Z,100.00
2023-01-20T07:38:51.719Z,100.00
2023-01-20T07:41:21.016Z,100.00
2023-01-20T07:43:51.483Z,99.65
2023-01-20T07:46:21.307Z,100.00
2023-01-20T07:48:48.934Z,99.66
2023-01-20T07:51:17.222Z,99.00
2023-01-20T07:53:46.685Z,98.94
2023-01-20T07:56:16.552Z,98.96
2023-01-20T07:58:45.160Z,99.19
2023-01-20T08:01:14.798Z,100.00
2023-01-20T08:03:44.569Z,100.00
2023-01-20T08:06:13.831Z,100.00
2023-01-20T08:08:41.369Z,99.50
2023-01-20T08:11:11.363Z,99.00
2023-01-20T08:13:39.418Z,97.18
2023-01-20T08:16:09.108Z,96.57
2023-01-20T08:18:36.947Z,97.01
2023-01-20T08:21:08.247Z,96.77
2023-01-20T08:23:36.961Z,95.35
2023-01-20T08:26:07.214Z,93.19
2023-01-20T08:28:36.239Z,92.79
2023-01-20T08:31:05.875Z,92.28
2023-01-20T08:33:33.580Z,92.45
2023-01-20T08:36:07.816Z,92.30
2023-01-20T08:38:36.382Z,91.16
2023-01-20T08:41:07.684Z,90.52
2023-01-20T08:43:35.231Z,91.70
2023-01-20T08:46:06.395Z,91.10
2023-01-20T08:48:34.324Z,89.47
2023-01-20T08:51:07.538Z,88.70
2023-01-20T08:53:35.725Z,88.78
2023-01-20T08:56:04.400Z,87.61
2023-01-20T08:58:31.993Z,86.94
2023-01-20T09:00:59.892Z,87.22
2023-01-20T09:03:28.129Z,87.20
2023-01-20T09:05:56.148Z,86.11
2023-01-20T09:08:26.904Z,84.68
2023-01-20T09:10:57.438Z,84.11
2023-01-20T09:13:24.977Z,84.74
2023-01-20T09:15:53.292Z,83.93
2023-01-20T09:18:20.883Z,82.04
2023-01-20T09:20:48.427Z,81.29
2023-01-20T09:23:16.094Z,79.61
2023-01-20T09:25:44.948Z,79.06
2023-01-20T09:28:14.179Z,78.97
2023-01-20T09:30:42.761Z,78.25
2023-01-20T09:33:11.318Z,78.84
2023-01-20T09:35:39.015Z,77.22
2023-01-20T09:38:36.544Z,77.89
2023-01-20T09:41:35.735Z,76.48
2023-01-20T09:44:15.928Z,77.01
2023-01-20T09:47:26.139Z,76.45
2023-01-20T09:50:36.094Z,75.80
2023-01-20T09:53:08.081Z,74.39
2023-01-20T09:55:44.045Z,74.45
2023-01-20T09:58:21.573Z,73.64
2023-01-20T10:00:54.044Z,73.26
2023-01-20T10:03:29.671Z,72.02
2023-01-20T10:06:00.545Z,71.71
2023-01-20T10:08:35.662Z,72.28
2023-01-20T10:11:10.318Z,75.49
2023-01-20T10:13:47.311Z,70.37
2023-01-20T10:16:25.037Z,71.12
2023-01-20T10:18:57.501Z,70.81
2023-01-20T10:21:32.399Z,68.96
2023-01-20T10:24:05.747Z,71.43
2023-01-20T10:26:38.098Z,72.16
2023-01-20T10:29:11.005Z,72.94
2023-01-20T10:31:44.280Z,71.15
2023-01-20T10:34:13.921Z,71.52
2023-01-20T10:36:44.159Z,71.31
2023-01-20T10:39:21.804Z,73.32
2023-01-20T10:41:53.461Z,73.69
2023-01-20T10:44:24.075Z,71.89
2023-01-20T10:47:13.490Z,71.02
2023-01-20T10:49:58.760Z,71.54
2023-01-20T10:52:42.869Z,70.00
2023-01-20T10:55:22.613Z,69.75
2023-01-20T10:57:55.699Z,70.32
2023-01-20T11:00:27.550Z,70.51
2023-01-20T11:02:58.977Z,66.48
2023-01-20T11:05:30.362Z,66.07
2023-01-20T11:08:00.697Z,67.55
2023-01-20T11:10:33.275Z,65.55
2023-01-20T11:13:02.751Z,62.51
2023-01-20T11:15:34.768Z,62.38
2023-01-20T11:18:29.807Z,62.01
2023-01-20T11:21:00.740Z,62.32
2023-01-20T11:23:36.466Z,60.15
2023-01-20T11:26:13.286Z,57.53
2023-01-20T11:28:51.525Z,57.05
2023-01-20T11:31:21.336Z,56.83
2023-01-20T11:33:58.095Z,56.90
2023-01-20T11:36:26.836Z,56.56
2023-01-20T11:38:56.410Z,57.58
2023-01-20T11:41:25.748Z,58.09
2023-01-20T11:43:56.078Z,59.80
2023-01-20T11:46:27.901Z,60.16
2023-01-20T11:49:16.963Z,59.59
2023-01-20T11:51:50.903Z,62.79
2023-01-20T11:54:21.282Z,63.98
2023-01-20T11:56:53.219Z,62.17
2023-01-20T11:59:26.907Z,63.81
2023-01-20T12:02:00.691Z,63.02
2023-01-20T12:04:53.939Z,61.33
2023-01-20T12:07:25.273Z,58.84
2023-01-20T12:09:55.542Z,60.61
2023-01-20T12:12:30.503Z,56.89
2023-01-20T12:15:03.000Z,57.33
2023-01-20T12:17:40.726Z,58.10
2023-01-20T12:20:18.121Z,58.75
2023-01-20T12:22:55.483Z,58.18
2023-01-20T12:25:26.458Z,55.69
2023-01-20T12:27:57.540Z,55.58
2023-01-20T12:30:43.407Z,56.91
2023-01-20T12:33:20.519Z,58.65
2023-01-20T12:36:24.880Z,58.58
2023-01-20T12:39:18.204Z,61.11
2023-01-20T12:41:59.992Z,61.87
2023-01-20T12:44:36.665Z,60.97
2023-01-20T12:47:17.351Z,62.74
2023-01-20T12:50:00.976Z,62.37
2023-01-20T12:52:44.506Z,62.02
2023-01-20T12:55:31.066Z,65.36
2023-01-20T12:58:08.127Z,64.83
2023-01-20T13:00:47.411Z,63.56
2023-01-20T13:03:34.658Z,64.48
2023-01-20T13:06:50.109Z,65.52
2023-01-20T13:09:32.950Z,65.40
2023-01-20T13:12:10.495Z,64.17
2023-01-20T13:14:43.671Z,64.99
2023-01-20T13:17:20.547Z,64.66
2023-01-20T13:19:49.820Z,63.49
2023-01-20T13:22:20.476Z,63.70
2023-01-20T13:24:53.275Z,64.35
2023-01-20T13:27:25.875Z,62.95
2023-01-20T13:29:56.706Z,61.73
2023-01-20T13:32:32.811Z,60.70
2023-01-20T13:35:01.902Z,59.15
2023-01-20T13:37:33.057Z,57.50
2023-01-20T13:40:02.464Z,55.71
2023-01-20T13:42:52.119Z,55.48
2023-01-20T13:45:25.681Z,57.25
2023-01-20T13:47:57.439Z,57.75
2023-01-20T13:50:29.383Z,56.47
2023-01-20T13:53:14.853Z,56.52
2023-01-20T13:56:00.715Z,55.80
2023-01-20T13:58:30.157Z,55.75
2023-01-20T14:00:59.327Z,54.16
2023-01-20T14:03:30.037Z,53.51
2023-01-20T14:06:00.327Z,52.79
2023-01-20T14:08:30.229Z,51.00
2023-01-20T14:11:16.977Z,51.50
2023-01-20T14:13:52.753Z,53.53
2023-01-20T14:16:22.173Z,54.33
2023-01-20T14:18:50.325Z,52.40
2023-01-20T14:21:21.006Z,55.00
2023-01-20T14:23:49.096Z,55.38
2023-01-20T14:26:24.292Z,54.61
2023-01-20T14:28:53.804Z,56.97
2023-01-20T14:31:35.159Z,56.40
2023-01-20T14:34:18.582Z,58.08
2023-01-20T14:36:47.142Z,58.77
2023-01-20T14:39:21.198Z,58.85
2023-01-20T14:41:51.943Z,59.22
2023-01-20T14:44:22.105Z,59.77
2023-01-20T14:46:51.836Z,59.08
2023-01-20T14:49:22.349Z,58.77
2023-01-20T14:51:51.238Z,60.23
2023-01-20T14:54:35.213Z,61.15
2023-01-20T14:57:26.333Z,61.49
2023-01-20T15:00:16.950Z,60.19
2023-01-20T15:02:58.023Z,59.06
2023-01-20T15:05:37.898Z,58.67
2023-01-20T15:08:24.349Z,59.46
2023-01-20T15:11:12.435Z,60.27
2023-01-20T15:13:42.334Z,60.53
2023-01-20T15:16:18.864Z,61.00
2023-01-20T15:19:25.159Z,61.56
2023-01-20T15:21:56.259Z,61.04
2023-01-20T15:24:30.472Z,61.04
2023-01-20T15:27:00.665Z,61.33
2023-01-20T15:29:31.069Z,61.58
2023-01-20T15:32:00.493Z,62.17
2023-01-20T15:34:29.250Z,62.33
2023-01-20T15:36:57.097Z,62.82
2023-01-20T15:39:28.909Z,62.80
2023-01-20T15:41:57.062Z,63.23
2023-01-20T15:44:26.121Z,62.84
2023-01-20T15:46:57.508Z,63.33
2023-01-20T15:49:25.901Z,63.92
2023-01-20T15:51:53.661Z,64.00
2023-01-20T15:54:21.208Z,64.58
2023-01-20T15:56:48.824Z,64.32
2023-01-20T15:59:20.102Z,65.50
2023-01-20T16:01:51.189Z,66.35
2023-01-20T16:04:21.730Z,69.80
2023-01-20T16:06:49.333Z,68.82
2023-01-20T16:09:25.756Z,67.99
2023-01-20T16:11:54.421Z,68.46
2023-01-20T16:14:22.056Z,69.51
2023-01-20T16:16:49.688Z,69.55
2023-01-20T16:19:20.981Z,71.44
2023-01-20T16:21:48.681Z,72.98
2023-01-20T16:24:16.196Z,73.10
2023-01-20T16:26:48.635Z,73.57
2023-01-20T16:29:16.372Z,74.79
2023-01-20T16:31:43.937Z,75.83
2023-01-20T16:34:11.559Z,76.74
2023-01-20T16:36:40.429Z,76.60
2023-01-20T16:39:08.051Z,77.50
2023-01-20T16:41:37.963Z,77.99
2023-01-20T16:44:05.683Z,78.43
2023-01-20T16:46:33.700Z,78.40
2023-01-20T16:49:02.934Z,80.32
2023-01-20T16:51:31.847Z,79.94
2023-01-20T16:54:00.838Z,80.02
2023-01-20T16:56:30.635Z,80.61
2023-01-20T16:59:00.516Z,80.86
2023-01-20T17:01:29.852Z,80.79
2023-01-20T17:03:59.530Z,80.45
2023-01-20T17:06:28.962Z,80.03
2023-01-20T17:08:58.410Z,80.52
2023-01-20T17:11:29.565Z,81.01
2023-01-20T17:13:58.467Z,80.94
2023-01-20T17:16:26.904Z,81.36
2023-01-20T17:18:58.421Z,80.62
2023-01-20T17:21:28.276Z,81.75
2023-01-20T17:23:58.329Z,81.64
2023-01-20T17:26:27.745Z,82.05
2023-01-20T17:28:56.480Z,82.43
2023-01-20T17:31:24.507Z,82.70
2023-01-20T17:33:52.665Z,84.19
2023-01-20T17:36:20.386Z,84.59
2023-01-20T17:38:48.399Z,83.69
2023-01-20T17:41:16.303Z,83.04
2023-01-20T17:43:46.544Z,82.95
2023-01-20T17:46:16.579Z,82.53
2023-01-20T17:48:44.791Z,82.50
2023-01-20T17:51:13.105Z,82.65
2023-01-20T17:53:40.896Z,82.18
2023-01-20T17:56:12.907Z,82.52
2023-01-20T17:58:42.019Z,82.77
2023-01-20T18:01:12.311Z,83.19
2023-01-20T18:03:41.947Z,83.52
2023-01-20T18:06:11.771Z,83.43
2023-01-20T18:08:39.588Z,84.11
2023-01-20T18:11:09.261Z,83.84
2023-01-20T18:13:37.629Z,83.72
2023-01-20T18:16:05.691Z,82.78
2023-01-20T18:18:34.872Z,82.96
2023-01-20T18:21:10.175Z,83.31
2023-01-20T18:23:39.247Z,83.51
2023-01-20T18:26:08.248Z,84.54
2023-01-20T18:28:37.320Z,86.83
2023-01-20T18:31:08.975Z,87.46
2023-01-20T18:33:39.847Z,85.88
2023-01-20T18:36:11.234Z,84.72
2023-01-20T18:38:43.049Z,84.67
2023-01-20T18:41:11.621Z,84.62
2023-01-20T18:43:39.693Z,84.78
2023-01-20T18:46:08.679Z,84.35
2023-01-20T18:48:40.196Z,85.01
2023-01-20T18:51:10.104Z,85.20
2023-01-20T18:53:38.124Z,85.42
2023-01-20T18:56:08.482Z,85.24
2023-01-20T18:58:38.355Z,85.26
2023-01-20T19:01:07.732Z,85.10
2023-01-20T19:03:36.583Z,86.50
2023-01-20T19:06:07.641Z,86.42
2023-01-20T19:08:35.670Z,85.69
2023-01-20T19:11:05.215Z,85.83
2023-01-20T19:13:33.571Z,85.90
2023-01-20T19:16:01.464Z,85.64
2023-01-20T19:18:29.291Z,86.14
2023-01-20T19:20:57.062Z,85.84
2023-01-20T19:23:25.964Z,85.46
2023-01-20T19:26:00.900Z,85.71
2023-01-20T19:28:28.491Z,85.48
2023-01-20T19:30:56.188Z,85.69
2023-01-20T19:33:23.784Z,85.51
2023-01-20T19:35:51.355Z,85.32
2023-01-20T19:38:18.910Z,85.18
2023-01-20T19:40:47.765Z,87.23
2023-01-20T19:43:15.318Z,86.00
2023-01-20T19:45:46.294Z,85.17
2023-01-20T19:48:14.112Z,84.68
2023-01-20T19:50:41.789Z,83.13
2023-01-20T19:53:09.365Z,82.02
2023-01-20T19:55:36.897Z,76.31
2023-01-20T19:58:06.251Z,78.11
2023-01-20T20:00:33.873Z,77.26
2023-01-20T20:03:02.884Z,77.09
2023-01-20T20:05:32.598Z,77.06
2023-01-20T20:08:00.277Z,77.18
2023-01-20T20:10:27.813Z,78.40
2023-01-20T20:12:57.518Z,79.36
2023-01-20T20:15:26.418Z,77.47
2023-01-20T20:17:55.050Z,81.65
2023-01-20T20:20:22.650Z,74.42
2023-01-20T20:22:50.322Z,75.53
2023-01-20T20:25:18.035Z,71.57
2023-01-20T20:27:45.588Z,71.12
2023-01-20T20:30:13.870Z,73.83
2023-01-20T20:32:42.914Z,75.41
2023-01-20T20:35:10.609Z,76.53
2023-01-20T20:37:38.274Z,77.04
2023-01-20T20:40:06.754Z,77.72
2023-01-20T20:42:34.915Z,78.20
2023-01-20T20:45:02.456Z,81.28
2023-01-20T20:47:29.990Z,82.30
2023-01-20T20:49:58.864Z,80.56
2023-01-20T20:52:26.418Z,79.63
2023-01-20T20:54:56.021Z,79.15
2023-01-20T20:57:23.626Z,75.62
2023-01-20T20:59:59.109Z,74.56
2023-01-20T21:02:27.626Z,73.53
2023-01-20T21:04:55.253Z,72.11
2023-01-20T21:07:24.289Z,72.23
2023-01-20T21:09:52.043Z,71.53
2023-01-20T21:12:19.661Z,71.67
2023-01-20T21:14:47.134Z,72.15
2023-01-20T21:17:14.692Z,71.83
2023-01-20T21:19:42.193Z,71.65
2023-01-20T21:22:09.796Z,71.66
2023-01-20T21:24:38.674Z,72.85
2023-01-20T21:27:06.366Z,73.36
2023-01-20T21:29:33.893Z,74.55
2023-01-20T21:32:01.431Z,74.87
2023-01-20T21:34:29.039Z,74.65
2023-01-20T21:36:56.751Z,74.56
2023-01-20T21:39:24.297Z,74.18
2023-01-20T21:41:53.171Z,73.55
2023-01-20T21:44:28.962Z,74.32
2023-01-20T21:46:57.297Z,74.31
2023-01-20T21:49:42.349Z,74.49
2023-01-20T21:52:44.494Z,75.61
2023-01-20T21:55:15.766Z,77.09
2023-01-20T21:57:44.689Z,77.50
2023-01-20T22:00:13.357Z,78.07
2023-01-20T22:02:43.270Z,78.07
2023-01-20T22:05:11.015Z,77.78
2023-01-20T22:07:38.587Z,77.64
2023-01-20T22:10:07.620Z,78.08
2023-01-20T22:12:35.628Z,78.05
2023-01-20T22:15:05.223Z,79.09
2023-01-20T22:17:32.775Z,79.26
2023-01-20T22:20:00.359Z,79.03
2023-01-20T22:22:27.894Z,78.85
2023-01-20T22:24:55.474Z,79.66
2023-01-20T22:27:23.074Z,80.09
2023-01-20T22:29:50.620Z,79.90
2023-01-20T22:32:19.525Z,79.42
2023-01-20T22:34:47.099Z,80.09
2023-01-20T22:37:14.657Z,79.79
2023-01-20T22:39:42.227Z,79.78
2023-01-20T22:42:09.829Z,79.91
2023-01-20T22:44:37.363Z,80.29
2023-01-20T22:47:10.072Z,80.25
2023-01-20T22:49:38.965Z,81.22
2023-01-20T22:52:06.626Z,81.63
2023-01-20T22:54:37.801Z,81.91
2023-01-20T22:57:05.480Z,82.18
2023-01-20T22:59:32.999Z,81.42
2023-01-20T23:02:00.573Z,81.26
2023-01-20T23:04:29.431Z,81.40
2023-01-20T23:06:58.307Z,82.01
2023-01-20T23:09:26.036Z,81.63
2023-01-20T23:11:53.741Z,81.40
2023-01-20T23:14:41.354Z,80.71
2023-01-20T23:17:08.866Z,81.88
2023-01-20T23:19:39.264Z,82.19
2023-01-20T23:22:08.630Z,80.90
2023-01-20T23:24:36.451Z,81.02
2023-01-20T23:27:04.026Z,80.96
2023-01-20T23:29:31.668Z,81.80
2023-01-20T23:31:59.273Z,82.46
2023-01-20T23:34:26.877Z,82.18
2023-01-20T23:36:54.472Z,80.71
2023-01-20T23:39:23.545Z,80.22
2023-01-20T23:41:51.422Z,79.89
2023-01-20T23:44:19.055Z,78.97
2023-01-20T23:46:46.674Z,78.44
2023-01-20T23:49:14.494Z,78.03
2023-01-20T23:51:42.160Z,77.50
2023-01-20T23:54:13.269Z,77.51
2023-01-20T23:56:42.208Z,77.50
2023-01-20T23:59:09.856Z,77.47
